createdAt,value
2022-07-27T00:01:01.483Z,21.34
2022-07-27T00:02:04.195Z,21.36
2022-07-27T00:03:06.461Z,21.37
2022-07-27T00:04:08.548Z,21.40
2022-07-27T00:05:10.774Z,21.38
2022-07-27T00:06:15.075Z,21.37
2022-07-27T00:07:18.486Z,21.15
2022-07-27T00:08:20.897Z,21.15
2022-07-27T00:09:23.198Z,21.18
2022-07-27T00:10:26.473Z,20.97
2022-07-27T00:11:28.733Z,20.80
2022-07-27T00:12:31.096Z,20.83
2022-07-27T00:13:33.354Z,20.70
2022-07-27T00:14:35.513Z,20.74
2022-07-27T00:15:37.959Z,20.74
2022-07-27T00:16:40.882Z,20.76
2022-07-27T00:17:43.907Z,20.80
2022-07-27T00:18:47.109Z,20.83
2022-07-27T00:19:49.961Z,20.85
2022-07-27T00:20:52.287Z,20.79
2022-07-27T00:21:54.397Z,20.82
2022-07-27T00:22:58.639Z,20.78
2022-07-27T00:24:00.857Z,20.73
2022-07-27T00:25:03.643Z,20.73
2022-07-27T00:26:06.058Z,20.66
2022-07-27T00:27:08.041Z,20.66
2022-07-27T00:28:10.305Z,20.67
2022-07-27T00:29:12.732Z,20.66
2022-07-27T00:30:16.103Z,20.65
2022-07-27T00:31:19.750Z,20.68
2022-07-27T00:32:22.118Z,20.66
2022-07-27T00:33:25.303Z,20.65
2022-07-27T00:34:27.748Z,20.66
2022-07-27T00:35:30.056Z,20.61
2022-07-27T00:36:33.880Z,20.56
2022-07-27T00:37:35.968Z,20.60
2022-07-27T00:38:38.235Z,20.63
2022-07-27T00:39:40.302Z,20.63
2022-07-27T00:40:42.655Z,20.63
2022-07-27T00:41:45.826Z,20.67
2022-07-27T00:42:48.096Z,20.68
2022-07-27T00:43:58.304Z,20.68
2022-07-27T00:45:00.806Z,20.70
2022-07-27T00:46:04.590Z,20.69
2022-07-27T00:47:08.385Z,20.73
2022-07-27T00:48:10.759Z,20.75
2022-07-27T00:49:13.427Z,20.79
2022-07-27T00:50:17.826Z,20.78
2022-07-27T00:51:21.328Z,20.77
2022-07-27T00:52:24.814Z,20.78
2022-07-27T00:53:27.281Z,20.81
2022-07-27T00:54:29.431Z,20.76
2022-07-27T00:55:32.279Z,20.80
2022-07-27T00:56:34.834Z,20.74
2022-07-27T00:57:58.544Z,20.72
2022-07-27T00:58:43.705Z,20.73
2022-07-27T00:59:45.893Z,20.79
2022-07-27T01:00:48.050Z,20.81
2022-07-27T01:01:51.007Z,20.81
2022-07-27T01:02:57.053Z,20.86
2022-07-27T01:03:59.293Z,20.86
2022-07-27T01:05:02.817Z,20.86
2022-07-27T01:06:05.352Z,20.82
2022-07-27T01:07:09.137Z,20.83
2022-07-27T01:08:13.149Z,20.83
2022-07-27T01:09:15.405Z,20.87
2022-07-27T01:10:18.888Z,20.87
2022-07-27T01:11:21.548Z,20.88
2022-07-27T01:12:28.909Z,20.84
2022-07-27T01:13:31.610Z,20.85
2022-07-27T01:14:35.402Z,20.84
2022-07-27T01:15:37.648Z,20.84
2022-07-27T01:16:40.583Z,20.84
2022-07-27T01:17:42.894Z,20.84
2022-07-27T01:18:46.085Z,20.85
2022-07-27T01:19:48.287Z,20.82
2022-07-27T01:20:50.491Z,20.80
2022-07-27T01:21:53.678Z,20.75
2022-07-27T01:22:55.984Z,20.68
2022-07-27T01:23:58.162Z,20.61
2022-07-27T01:25:01.310Z,20.57
2022-07-27T01:26:04.454Z,20.53
2022-07-27T01:27:07.021Z,20.54
2022-07-27T01:28:10.211Z,20.55
2022-07-27T01:29:12.855Z,20.56
2022-07-27T01:30:17.098Z,20.63
2022-07-27T01:31:20.277Z,20.67
2022-07-27T01:32:22.503Z,20.67
2022-07-27T01:33:24.574Z,20.70
2022-07-27T01:34:26.660Z,20.69
2022-07-27T01:35:30.748Z,20.64
2022-07-27T01:36:33.235Z,20.57
2022-07-27T01:37:35.348Z,20.55
2022-07-27T01:38:37.497Z,20.55
2022-07-27T01:39:40.798Z,20.54
2022-07-27T01:40:43.564Z,20.55
2022-07-27T01:41:46.516Z,20.56
2022-07-27T01:42:50.130Z,20.54
2022-07-27T01:43:52.905Z,20.54
2022-07-27T01:44:55.057Z,20.54
2022-07-27T01:45:57.250Z,20.45
2022-07-27T01:46:59.685Z,20.37
2022-07-27T01:48:01.842Z,20.33
2022-07-27T01:49:04.951Z,20.34
2022-07-27T01:50:08.863Z,20.35
2022-07-27T01:51:11.280Z,20.37
2022-07-27T01:52:13.425Z,20.34
2022-07-27T01:53:15.502Z,20.34
2022-07-27T01:54:17.910Z,20.31
2022-07-27T01:55:21.144Z,20.31
2022-07-27T01:56:25.110Z,20.26
2022-07-27T01:57:28.166Z,20.25
2022-07-27T01:58:30.477Z,20.23
2022-07-27T01:59:32.634Z,20.22
2022-07-27T02:00:35.720Z,20.23
2022-07-27T02:01:38.049Z,20.25
2022-07-27T02:02:40.849Z,20.26
2022-07-27T02:03:42.917Z,20.20
2022-07-27T02:04:45.160Z,20.16
2022-07-27T02:05:47.383Z,20.17
2022-07-27T02:06:50.160Z,20.15
2022-07-27T02:07:52.967Z,20.15
2022-07-27T02:08:56.397Z,20.19
2022-07-27T02:09:58.613Z,20.20
2022-07-27T02:11:01.587Z,20.20
2022-07-27T02:12:04.872Z,20.20
2022-07-27T02:13:22.314Z,20.12
2022-07-27T02:14:11.136Z,19.98
2022-07-27T02:15:19.401Z,20.00
2022-07-27T02:16:22.971Z,20.05
2022-07-27T02:17:26.730Z,20.05
2022-07-27T02:18:35.889Z,20.06
2022-07-27T02:19:34.772Z,20.10
2022-07-27T02:20:37.494Z,20.11
2022-07-27T02:21:40.626Z,20.15
2022-07-27T02:22:44.870Z,20.17
2022-07-27T02:23:47.028Z,20.15
2022-07-27T02:24:49.901Z,20.16
2022-07-27T02:25:52.066Z,20.15
2022-07-27T02:26:54.529Z,20.11
2022-07-27T02:27:56.596Z,20.11
2022-07-27T02:28:58.653Z,20.04
2022-07-27T02:30:00.692Z,20.06
2022-07-27T02:31:03.471Z,20.08
2022-07-27T02:32:06.028Z,20.10
2022-07-27T02:33:09.304Z,20.06
2022-07-27T02:34:12.128Z,20.10
2022-07-27T02:35:18.548Z,20.12
2022-07-27T02:36:20.083Z,20.10
2022-07-27T02:37:22.356Z,20.08
2022-07-27T02:38:24.809Z,20.01
2022-07-27T02:39:26.954Z,19.89
2022-07-27T02:40:29.103Z,19.87
2022-07-27T02:41:32.249Z,19.87
2022-07-27T02:42:34.558Z,19.91
2022-07-27T02:43:36.651Z,19.94
2022-07-27T02:44:38.780Z,19.98
2022-07-27T02:45:40.928Z,20.01
2022-07-27T02:46:43.795Z,20.06
2022-07-27T02:47:46.188Z,20.10
2022-07-27T02:48:48.875Z,20.15
2022-07-27T02:49:51.198Z,20.18
2022-07-27T02:50:53.400Z,20.15
2022-07-27T02:51:56.584Z,20.18
2022-07-27T02:52:58.797Z,20.19
2022-07-27T02:54:00.868Z,20.19
2022-07-27T02:55:04.834Z,20.19
2022-07-27T02:56:07.968Z,20.23
2022-07-27T02:57:10.126Z,20.23
2022-07-27T02:58:12.108Z,20.22
2022-07-27T02:59:14.739Z,20.22
2022-07-27T03:00:18.697Z,20.22
2022-07-27T03:01:22.296Z,20.22
2022-07-27T03:02:25.279Z,20.21
2022-07-27T03:03:35.937Z,20.20
2022-07-27T03:04:31.653Z,20.21
2022-07-27T03:05:34.828Z,20.18
2022-07-27T03:06:37.216Z,20.15
2022-07-27T03:07:39.442Z,20.17
2022-07-27T03:08:41.603Z,20.15
2022-07-27T03:09:44.783Z,20.15
2022-07-27T03:10:48.576Z,20.13
2022-07-27T03:11:52.069Z,20.18
2022-07-27T03:12:54.437Z,20.21
2022-07-27T03:13:56.895Z,20.18
2022-07-27T03:14:58.965Z,20.18
2022-07-27T03:16:01.059Z,20.20
2022-07-27T03:17:03.314Z,20.22
2022-07-27T03:18:05.420Z,20.23
2022-07-27T03:19:07.378Z,20.26
2022-07-27T03:20:10.941Z,20.27
2022-07-27T03:21:13.018Z,20.30
2022-07-27T03:22:16.204Z,20.26
2022-07-27T03:23:18.494Z,20.31
2022-07-27T03:24:21.334Z,20.32
2022-07-27T03:25:23.735Z,20.36
2022-07-27T03:26:27.901Z,20.39
2022-07-27T03:27:30.472Z,20.43
2022-07-27T03:28:32.626Z,20.46
2022-07-27T03:29:34.819Z,20.45
2022-07-27T03:30:37.256Z,20.51
2022-07-27T03:31:40.265Z,20.53
2022-07-27T03:32:43.506Z,20.55
2022-07-27T03:33:45.669Z,20.57
2022-07-27T03:34:47.739Z,20.61
2022-07-27T03:35:50.025Z,20.59
2022-07-27T03:36:52.458Z,20.61
2022-07-27T03:37:54.582Z,20.61
2022-07-27T03:38:56.768Z,20.61
2022-07-27T03:39:59.005Z,20.59
2022-07-27T03:41:01.356Z,20.61
2022-07-27T03:42:04.107Z,20.62
2022-07-27T03:43:07.046Z,20.54
2022-07-27T03:44:10.307Z,20.53
2022-07-27T03:45:13.695Z,20.54
2022-07-27T03:46:18.006Z,20.56
2022-07-27T03:47:20.396Z,20.52
2022-07-27T03:48:22.463Z,20.52
2022-07-27T03:49:24.749Z,20.50
2022-07-27T03:50:27.975Z,20.37
2022-07-27T03:51:32.511Z,20.30
2022-07-27T03:52:34.652Z,20.26
2022-07-27T03:53:36.809Z,20.29
2022-07-27T03:54:38.895Z,20.25
2022-07-27T03:55:41.004Z,20.24
2022-07-27T03:56:44.590Z,20.17
2022-07-27T03:57:47.098Z,20.10
2022-07-27T03:58:49.523Z,20.16
2022-07-27T03:59:51.904Z,20.23
2022-07-27T04:00:54.704Z,20.31
2022-07-27T04:02:00.038Z,20.36
2022-07-27T04:03:02.326Z,20.41
2022-07-27T04:04:04.557Z,20.46
2022-07-27T04:05:07.789Z,20.50
2022-07-27T04:06:11.600Z,20.53
2022-07-27T04:07:13.637Z,20.58
2022-07-27T04:08:15.684Z,20.62
2022-07-27T04:09:18.278Z,20.65
2022-07-27T04:10:25.019Z,20.68
2022-07-27T04:11:29.657Z,20.68
2022-07-27T04:12:33.930Z,20.68
2022-07-27T04:13:38.565Z,20.69
2022-07-27T04:14:40.900Z,20.70
2022-07-27T04:15:43.185Z,20.72
2022-07-27T04:16:46.534Z,20.70
2022-07-27T04:17:54.736Z,20.70
2022-07-27T04:18:53.942Z,20.70
2022-07-27T04:19:56.123Z,20.65
2022-07-27T04:20:58.472Z,20.66
2022-07-27T04:22:00.633Z,20.69
2022-07-27T04:23:03.291Z,20.69
2022-07-27T04:24:06.038Z,20.72
2022-07-27T04:25:09.496Z,20.78
2022-07-27T04:26:13.321Z,20.82
2022-07-27T04:27:16.539Z,20.87
2022-07-27T04:28:19.337Z,20.92
2022-07-27T04:29:21.926Z,20.96
2022-07-27T04:30:24.773Z,21.02
2022-07-27T04:31:27.024Z,21.04
2022-07-27T04:32:29.203Z,21.08
2022-07-27T04:33:31.530Z,21.10
2022-07-27T04:34:33.562Z,21.11
2022-07-27T04:35:36.770Z,21.16
2022-07-27T04:36:39.337Z,21.20
2022-07-27T04:37:41.379Z,21.18
2022-07-27T04:38:46.183Z,21.06
2022-07-27T04:39:48.465Z,21.11
2022-07-27T04:40:53.821Z,21.10
2022-07-27T04:41:54.843Z,21.12
2022-07-27T04:42:57.085Z,21.15
2022-07-27T04:44:00.114Z,21.20
2022-07-27T04:45:04.101Z,21.28
2022-07-27T04:46:09.505Z,21.30
2022-07-27T04:47:10.557Z,21.29
2022-07-27T04:48:12.997Z,21.27
2022-07-27T04:49:16.625Z,21.31
2022-07-27T04:50:21.203Z,21.36
2022-07-27T04:51:23.490Z,21.43
2022-07-27T04:52:26.400Z,21.48
2022-07-27T04:53:29.615Z,21.53
2022-07-27T04:54:32.158Z,21.55
2022-07-27T04:55:34.234Z,21.59
2022-07-27T04:56:36.496Z,21.63
2022-07-27T04:57:39.726Z,21.54
2022-07-27T04:58:42.457Z,21.48
2022-07-27T04:59:44.713Z,21.52
2022-07-27T05:00:46.891Z,21.54
2022-07-27T05:01:49.186Z,21.62
2022-07-27T05:02:51.395Z,21.67
2022-07-27T05:03:53.830Z,21.70
2022-07-27T05:04:56.114Z,21.62
2022-07-27T05:05:58.370Z,21.66
2022-07-27T05:07:00.632Z,21.74
2022-07-27T05:08:03.923Z,21.82
2022-07-27T05:09:06.275Z,21.88
2022-07-27T05:10:09.257Z,21.95
2022-07-27T05:11:12.486Z,22.01
2022-07-27T05:12:14.495Z,22.06
2022-07-27T05:13:16.553Z,22.13
2022-07-27T05:14:21.588Z,22.17
2022-07-27T05:15:24.342Z,22.25
2022-07-27T05:16:29.104Z,22.29
2022-07-27T05:17:31.654Z,22.35
2022-07-27T05:18:33.783Z,22.39
2022-07-27T05:19:40.585Z,22.44
2022-07-27T05:20:40.353Z,22.48
2022-07-27T05:21:43.171Z,22.53
2022-07-27T05:22:46.125Z,22.56
2022-07-27T05:23:48.257Z,22.61
2022-07-27T05:24:50.428Z,22.65
2022-07-27T05:25:53.745Z,22.65
2022-07-27T05:26:56.256Z,22.70
2022-07-27T05:27:58.412Z,22.72
2022-07-27T05:29:01.609Z,22.60
2022-07-27T05:30:07.339Z,22.42
2022-07-27T05:31:09.488Z,22.39
2022-07-27T05:32:11.654Z,22.44
2022-07-27T05:33:13.865Z,22.44
2022-07-27T05:34:16.511Z,22.46
2022-07-27T05:35:19.015Z,22.51
2022-07-27T05:36:22.674Z,22.57
2022-07-27T05:37:24.906Z,22.65
2022-07-27T05:38:27.153Z,22.69
2022-07-27T05:39:29.227Z,22.68
2022-07-27T05:40:31.689Z,22.73
2022-07-27T05:41:34.554Z,22.78
2022-07-27T05:42:37.011Z,22.83
2022-07-27T05:43:39.777Z,22.73
2022-07-27T05:44:42.160Z,22.77
2022-07-27T05:45:44.524Z,22.86
2022-07-27T05:46:46.878Z,22.92
2022-07-27T05:47:49.251Z,23.00
2022-07-27T05:48:53.306Z,23.05
2022-07-27T05:49:55.601Z,23.11
2022-07-27T05:50:57.979Z,23.19
2022-07-27T05:52:00.166Z,23.22
2022-07-27T05:53:02.999Z,23.18
2022-07-27T05:54:05.228Z,23.10
2022-07-27T05:55:08.187Z,23.11
2022-07-27T05:56:10.497Z,23.13
2022-07-27T05:57:14.748Z,23.16
2022-07-27T05:58:16.860Z,23.14
2022-07-27T05:59:22.025Z,23.16
2022-07-27T06:00:25.471Z,23.13
2022-07-27T06:01:27.987Z,23.13
2022-07-27T06:02:30.595Z,23.19
2022-07-27T06:03:33.786Z,23.21
2022-07-27T06:04:36.170Z,23.25
2022-07-27T06:05:38.225Z,23.32
2022-07-27T06:06:41.587Z,23.36
2022-07-27T06:07:43.956Z,23.40
2022-07-27T06:08:47.847Z,23.47
2022-07-27T06:09:49.979Z,23.44
2022-07-27T06:10:52.329Z,23.47
2022-07-27T06:11:54.517Z,23.44
2022-07-27T06:12:56.723Z,23.51
2022-07-27T06:13:59.142Z,23.58
2022-07-27T06:15:01.891Z,23.63
2022-07-27T06:16:05.040Z,23.57
2022-07-27T06:17:07.412Z,23.49
2022-07-27T06:18:10.847Z,23.49
2022-07-27T06:19:13.612Z,23.53
2022-07-27T06:20:19.938Z,23.60
2022-07-27T06:21:22.435Z,23.68
2022-07-27T06:22:24.931Z,23.77
2022-07-27T06:23:28.123Z,23.85
2022-07-27T06:24:30.348Z,23.85
2022-07-27T06:25:35.674Z,23.87
2022-07-27T06:26:38.547Z,23.88
2022-07-27T06:27:41.500Z,23.71
2022-07-27T06:28:44.055Z,23.73
2022-07-27T06:29:46.229Z,23.82
2022-07-27T06:30:48.668Z,23.91
2022-07-27T06:31:50.821Z,23.93
2022-07-27T06:32:53.122Z,23.99
2022-07-27T06:33:55.086Z,24.04
2022-07-27T06:34:58.263Z,24.11
2022-07-27T06:36:01.448Z,24.11
2022-07-27T06:37:04.125Z,24.16
2022-07-27T06:38:07.497Z,24.16
2022-07-27T06:39:10.640Z,24.07
2022-07-27T06:40:14.478Z,24.05
2022-07-27T06:41:16.918Z,24.01
2022-07-27T06:42:18.965Z,24.02
2022-07-27T06:43:23.110Z,24.03
2022-07-27T06:44:25.210Z,24.15
2022-07-27T06:45:28.123Z,24.21
2022-07-27T06:46:31.253Z,24.31
2022-07-27T06:47:33.737Z,24.24
2022-07-27T06:48:35.832Z,24.21
2022-07-27T06:49:38.517Z,24.30
2022-07-27T06:50:40.882Z,24.40
2022-07-27T06:51:43.122Z,24.45
2022-07-27T06:52:46.600Z,24.50
2022-07-27T06:53:49.183Z,24.55
2022-07-27T06:54:51.390Z,24.61
2022-07-27T06:55:53.561Z,24.60
2022-07-27T06:56:57.809Z,24.63
2022-07-27T06:58:00.059Z,24.69
2022-07-27T06:59:02.265Z,24.76
2022-07-27T07:00:07.375Z,24.74
2022-07-27T07:01:10.512Z,24.80
2022-07-27T07:02:12.808Z,24.88
2022-07-27T07:03:15.651Z,24.92
2022-07-27T07:04:18.273Z,24.95
2022-07-27T07:05:22.530Z,24.97
2022-07-27T07:06:27.769Z,24.92
2022-07-27T07:07:30.022Z,24.90
2022-07-27T07:08:32.446Z,24.86
2022-07-27T07:09:35.313Z,24.88
2022-07-27T07:10:39.163Z,24.93
2022-07-27T07:11:41.517Z,24.97
2022-07-27T07:12:44.793Z,24.99
2022-07-27T07:13:47.058Z,25.07
2022-07-27T07:14:49.331Z,25.15
2022-07-27T07:15:51.643Z,25.17
2022-07-27T07:16:54.054Z,25.19
2022-07-27T07:17:57.269Z,25.23
2022-07-27T07:19:00.003Z,25.21
2022-07-27T07:20:04.920Z,25.21
2022-07-27T07:21:07.130Z,25.19
2022-07-27T07:22:10.395Z,25.22
2022-07-27T07:23:12.843Z,25.21
2022-07-27T07:24:14.972Z,25.22
2022-07-27T07:25:17.044Z,25.18
2022-07-27T07:26:19.786Z,25.24
2022-07-27T07:27:23.086Z,25.23
2022-07-27T07:28:26.378Z,25.15
2022-07-27T07:29:29.653Z,25.20
2022-07-27T07:30:33.149Z,25.06
2022-07-27T07:31:35.653Z,25.08
2022-07-27T07:32:37.980Z,25.15
2022-07-27T07:33:40.249Z,25.24
2022-07-27T07:34:42.699Z,25.22
2022-07-27T07:36:12.237Z,25.24
2022-07-27T07:36:50.088Z,25.23
2022-07-27T07:37:53.465Z,25.31
2022-07-27T07:38:56.744Z,25.44
2022-07-27T07:40:13.043Z,25.56
2022-07-27T07:41:03.982Z,25.50
2022-07-27T07:42:06.129Z,25.47
2022-07-27T07:43:12.566Z,25.62
2022-07-27T07:44:14.830Z,25.74
2022-07-27T07:45:17.060Z,25.84
2022-07-27T07:46:19.663Z,25.96
2022-07-27T07:47:24.024Z,25.98
2022-07-27T07:48:26.231Z,25.98
2022-07-27T07:49:39.332Z,26.08
2022-07-27T07:50:32.663Z,25.99
2022-07-27T07:51:35.363Z,26.08
2022-07-27T07:52:37.489Z,26.17
2022-07-27T07:53:41.594Z,26.26
2022-07-27T07:54:44.821Z,26.37
2022-07-27T07:55:47.136Z,26.50
2022-07-27T07:56:49.523Z,26.59
2022-07-27T07:57:51.900Z,26.66
2022-07-27T07:58:54.350Z,26.74
2022-07-27T07:59:56.478Z,26.82
2022-07-27T08:00:59.665Z,26.94
2022-07-27T08:02:02.076Z,26.98
2022-07-27T08:03:04.353Z,26.97
2022-07-27T08:04:06.557Z,27.02
2022-07-27T08:05:09.213Z,27.11
2022-07-27T08:06:11.948Z,27.14
2022-07-27T08:07:14.242Z,27.26
2022-07-27T08:08:16.520Z,27.30
2022-07-27T08:09:19.158Z,27.28
2022-07-27T08:10:22.943Z,27.32
2022-07-27T08:11:25.177Z,27.30
2022-07-27T08:12:28.474Z,27.15
2022-07-27T08:13:30.591Z,27.03
2022-07-27T08:14:33.441Z,26.86
2022-07-27T08:15:36.493Z,26.84
2022-07-27T08:16:39.138Z,26.80
2022-07-27T08:17:42.382Z,26.83
2022-07-27T08:18:44.527Z,26.69
2022-07-27T08:19:47.302Z,26.51
2022-07-27T08:20:49.721Z,26.53
2022-07-27T08:21:52.122Z,26.57
2022-07-27T08:22:54.305Z,26.65
2022-07-27T08:23:58.638Z,26.61
2022-07-27T08:25:02.558Z,26.72
2022-07-27T08:26:08.003Z,26.76
2022-07-27T08:27:09.218Z,26.71
2022-07-27T08:28:11.825Z,26.88
2022-07-27T08:29:15.342Z,26.88
2022-07-27T08:30:18.094Z,27.01
2022-07-27T08:31:24.500Z,27.06
2022-07-27T08:32:24.429Z,27.16
2022-07-27T08:33:28.516Z,27.25
2022-07-27T08:34:30.917Z,27.32
2022-07-27T08:35:35.444Z,27.38
2022-07-27T08:36:38.810Z,27.46
2022-07-27T08:37:40.912Z,27.52
2022-07-27T08:38:42.986Z,27.52
2022-07-27T08:40:51.774Z,27.64
2022-07-27T08:41:57.480Z,27.68
2022-07-27T08:43:05.203Z,27.73
2022-07-27T08:44:09.554Z,27.64
2022-07-27T08:45:16.252Z,27.70
2022-07-27T08:46:21.474Z,27.47
2022-07-27T08:47:24.522Z,27.33
2022-07-27T08:48:30.799Z,27.31
2022-07-27T08:49:43.220Z,27.38
2022-07-27T08:50:38.296Z,27.45
2022-07-27T08:51:46.883Z,27.53
2022-07-27T08:52:45.783Z,27.53
2022-07-27T08:53:53.371Z,27.61
2022-07-27T08:54:55.114Z,27.70
2022-07-27T08:55:57.477Z,27.74
2022-07-27T08:57:00.058Z,27.79
2022-07-27T08:58:04.402Z,27.70
2022-07-27T08:59:06.600Z,27.48
2022-07-27T09:00:11.532Z,27.56
2022-07-27T09:01:14.326Z,27.58
2022-07-27T09:02:16.634Z,27.70
2022-07-27T09:03:21.642Z,27.56
2022-07-27T09:04:24.774Z,27.46
2022-07-27T09:05:36.200Z,27.42
2022-07-27T09:08:11.727Z,27.49
2022-07-27T09:09:16.867Z,27.52
2022-07-27T09:10:34.335Z,27.77
2022-07-27T09:11:37.514Z,27.89
2022-07-27T09:12:40.631Z,28.01
2022-07-27T09:13:43.798Z,28.10
2022-07-27T09:14:51.139Z,28.23
2022-07-27T09:17:48.107Z,28.45
2022-07-27T09:18:28.696Z,28.58
2022-07-27T09:19:32.778Z,28.69
2022-07-27T09:20:36.854Z,28.80
2022-07-27T09:21:42.177Z,28.74
2022-07-27T09:22:55.927Z,28.80
2022-07-27T09:24:36.592Z,28.82
2022-07-27T09:25:44.977Z,28.71
2022-07-27T09:26:32.578Z,28.67
2022-07-27T09:27:32.724Z,28.52
2022-07-27T09:28:35.909Z,28.59
2022-07-27T09:29:38.087Z,28.64
2022-07-27T09:30:44.189Z,28.51
2022-07-27T09:31:49.571Z,28.55
2022-07-27T09:33:01.362Z,28.49
2022-07-27T09:34:03.780Z,28.35
2022-07-27T09:35:17.813Z,28.28
2022-07-27T09:36:23.741Z,28.32
2022-07-27T09:37:27.512Z,28.10
2022-07-27T09:38:29.706Z,28.19
2022-07-27T09:39:32.106Z,28.30
2022-07-27T09:40:35.768Z,28.42
2022-07-27T09:41:45.907Z,28.59
2022-07-27T09:43:06.743Z,28.76
2022-07-27T09:44:59.976Z,29.09
2022-07-27T09:46:06.604Z,29.15
2022-07-27T09:47:26.300Z,29.10
2022-07-27T09:48:28.515Z,29.20
2022-07-27T09:49:34.511Z,29.25
2022-07-27T09:50:48.706Z,29.09
2022-07-27T09:51:59.298Z,29.13
2022-07-27T09:52:49.208Z,29.07
2022-07-27T09:53:53.170Z,29.17
2022-07-27T09:55:04.338Z,29.18
2022-07-27T09:56:12.434Z,29.33
2022-07-27T09:57:14.652Z,29.45
2022-07-27T09:58:17.773Z,29.52
2022-07-27T09:59:20.321Z,29.57
2022-07-27T10:00:24.127Z,29.66
2022-07-27T10:01:30.314Z,29.76
2022-07-27T10:02:32.651Z,29.85
2022-07-27T10:03:35.137Z,29.94
2022-07-27T10:04:37.574Z,30.03
2022-07-27T10:05:41.884Z,30.02
2022-07-27T10:07:01.689Z,29.95
2022-07-27T10:07:52.336Z,29.94
2022-07-27T10:08:57.745Z,29.83
2022-07-27T10:10:01.775Z,29.89
2022-07-27T10:11:04.436Z,29.64
2022-07-27T10:12:09.261Z,29.75
2022-07-27T10:13:12.025Z,29.75
2022-07-27T10:14:14.922Z,29.45
2022-07-27T10:15:18.027Z,29.24
2022-07-27T10:16:27.656Z,29.24
2022-07-27T10:17:30.190Z,29.36
2022-07-27T10:18:55.832Z,29.47
2022-07-27T10:19:57.885Z,29.52
2022-07-27T10:21:04.706Z,29.59
2022-07-27T10:22:06.963Z,29.68
2022-07-27T10:23:12.628Z,29.85
2022-07-27T10:24:28.058Z,30.01
2022-07-27T10:25:37.500Z,30.11
2022-07-27T10:26:39.087Z,30.03
2022-07-27T10:27:41.211Z,29.94
2022-07-27T10:28:59.541Z,30.03
2022-07-27T10:30:04.898Z,30.09
2022-07-27T10:31:19.920Z,30.14
2022-07-27T10:32:32.146Z,30.14
2022-07-27T10:33:46.230Z,30.04
2022-07-27T10:34:48.426Z,29.82
2022-07-27T10:35:50.682Z,29.87
2022-07-27T10:36:54.634Z,29.70
2022-07-27T10:38:09.024Z,29.52
2022-07-27T10:39:13.306Z,29.56
2022-07-27T10:40:18.720Z,29.70
2022-07-27T10:41:33.529Z,29.77
2022-07-27T10:42:35.772Z,29.79
2022-07-27T10:43:37.940Z,29.94
2022-07-27T10:44:55.759Z,30.09
2022-07-27T10:46:01.971Z,30.24
2022-07-27T10:47:03.686Z,30.34
2022-07-27T10:48:05.907Z,30.44
2022-07-27T10:49:18.467Z,30.53
2022-07-27T10:50:25.938Z,30.48
2022-07-27T10:51:35.987Z,30.20
2022-07-27T10:52:47.501Z,30.30
2022-07-27T10:54:11.898Z,30.31
2022-07-27T10:54:59.823Z,29.95
2022-07-27T10:55:58.856Z,29.93
2022-07-27T10:57:02.820Z,30.09
2022-07-27T10:58:17.733Z,30.32
2022-07-27T11:00:55.640Z,29.86
2022-07-27T11:02:01.924Z,29.70
2022-07-27T11:03:06.344Z,29.77
2022-07-27T11:04:09.589Z,29.85
2022-07-27T11:05:37.909Z,29.89
2022-07-27T11:06:51.690Z,29.95
2022-07-27T11:07:43.736Z,30.00
2022-07-27T11:08:47.088Z,30.11
2022-07-27T11:10:03.508Z,30.10
2022-07-27T11:10:50.160Z,30.08
2022-07-27T11:11:53.895Z,30.27
2022-07-27T11:12:56.318Z,30.52
2022-07-27T11:14:00.355Z,30.73
2022-07-27T11:15:03.949Z,30.59
2022-07-27T11:16:25.941Z,30.69
2022-07-27T11:18:17.564Z,31.04
2022-07-27T11:19:24.858Z,31.22
2022-07-27T11:20:31.641Z,31.36
2022-07-27T11:21:36.977Z,31.12
2022-07-27T11:23:51.416Z,30.82
2022-07-27T11:24:53.949Z,31.02
2022-07-27T11:25:57.573Z,31.00
2022-07-27T11:27:00.201Z,30.53
2022-07-27T11:28:05.334Z,30.47
2022-07-27T11:29:10.520Z,30.57
2022-07-27T11:30:23.118Z,30.78
2022-07-27T11:31:53.025Z,30.82
2022-07-27T11:32:34.178Z,30.92
2022-07-27T11:33:36.540Z,30.78
2022-07-27T11:34:38.634Z,30.66
2022-07-27T11:35:44.328Z,30.83
2022-07-27T11:36:49.361Z,31.05
2022-07-27T11:38:00.942Z,31.27
2022-07-27T11:39:05.083Z,31.52
2022-07-27T11:40:53.365Z,31.70
2022-07-27T11:41:55.565Z,31.78
2022-07-27T11:42:37.927Z,31.66
2022-07-27T11:43:45.483Z,31.33
2022-07-27T11:44:47.562Z,30.88
2022-07-27T11:45:49.745Z,30.72
2022-07-27T11:46:57.340Z,30.69
2022-07-27T11:47:59.196Z,30.62
2022-07-27T11:49:07.559Z,30.62
2022-07-27T11:50:10.194Z,30.63
2022-07-27T11:51:17.102Z,30.80
2022-07-27T11:52:21.393Z,30.94
2022-07-27T11:53:23.667Z,31.13
2022-07-27T11:54:28.467Z,31.25
2022-07-27T11:55:30.586Z,31.25
2022-07-27T11:56:35.953Z,31.35
2022-07-27T11:57:38.173Z,31.28
2022-07-27T11:59:04.255Z,31.24
2022-07-27T12:00:08.408Z,31.29
2022-07-27T12:01:16.037Z,31.33
2022-07-27T12:02:19.858Z,31.42
2022-07-27T12:03:24.127Z,31.50
2022-07-27T12:04:34.596Z,31.53
2022-07-27T12:05:36.939Z,31.57
2022-07-27T12:06:42.387Z,31.61
2022-07-27T12:07:44.756Z,31.36
2022-07-27T12:08:46.912Z,31.03
2022-07-27T12:09:54.092Z,30.75
2022-07-27T12:10:59.207Z,30.49
2022-07-27T12:12:11.002Z,30.64
2022-07-27T12:13:19.514Z,30.44
2022-07-27T12:14:34.608Z,30.31
2022-07-27T12:15:46.660Z,30.30
2022-07-27T12:16:45.174Z,30.17
2022-07-27T12:17:56.913Z,30.28
2022-07-27T12:19:00.107Z,30.33
2022-07-27T12:20:08.093Z,30.20
2022-07-27T12:21:17.839Z,30.01
2022-07-27T12:22:29.561Z,30.00
2022-07-27T12:23:32.381Z,30.05
2022-07-27T12:24:40.471Z,30.00
2022-07-27T12:25:43.359Z,29.90
2022-07-27T12:26:49.159Z,29.68
2022-07-27T12:27:59.982Z,29.60
2022-07-27T12:29:11.600Z,29.55
2022-07-27T12:30:15.941Z,29.54
2022-07-27T12:31:18.517Z,29.45
2022-07-27T12:32:21.379Z,29.42
2022-07-27T12:33:38.007Z,29.42
2022-07-27T12:34:40.440Z,29.40
2022-07-27T12:35:46.218Z,29.43
2022-07-27T12:36:50.838Z,29.25
2022-07-27T12:37:59.179Z,29.22
2022-07-27T12:39:01.560Z,29.16
2022-07-27T12:40:08.156Z,29.09
2022-07-27T12:41:11.388Z,29.06
2022-07-27T12:42:15.221Z,28.94
2022-07-27T12:43:20.854Z,28.89
2022-07-27T12:44:26.703Z,28.34
2022-07-27T12:45:35.396Z,28.14
2022-07-27T12:46:58.252Z,27.90
2022-07-27T12:48:12.433Z,27.63
2022-07-27T12:49:15.829Z,27.55
2022-07-27T12:50:28.580Z,27.42
2022-07-27T12:51:31.017Z,27.22
2022-07-27T12:52:36.260Z,27.13
2022-07-27T12:53:39.087Z,26.91
2022-07-27T12:54:41.384Z,26.82
2022-07-27T12:55:46.312Z,26.51
2022-07-27T12:56:48.747Z,26.41
2022-07-27T12:57:56.555Z,26.43
2022-07-27T12:59:00.359Z,26.38
2022-07-27T13:00:06.306Z,26.23
2022-07-27T13:01:08.667Z,26.13
2022-07-27T13:02:11.026Z,26.16
2022-07-27T13:03:13.481Z,26.13
2022-07-27T13:04:15.633Z,26.00
2022-07-27T13:05:18.471Z,25.88
2022-07-27T13:06:21.092Z,25.87
2022-07-27T13:07:23.435Z,25.90
2022-07-27T13:08:25.623Z,25.86
2022-07-27T13:10:03.394Z,25.75
2022-07-27T13:10:35.564Z,25.79
2022-07-27T13:11:38.437Z,25.77
2022-07-27T13:12:41.679Z,25.78
2022-07-27T13:13:43.972Z,25.74
2022-07-27T13:14:46.040Z,25.72
2022-07-27T13:15:48.234Z,25.78
2022-07-27T13:16:50.649Z,25.57
2022-07-27T13:17:52.907Z,25.62
2022-07-27T13:18:55.084Z,25.64
2022-07-27T13:19:57.179Z,25.75
2022-07-27T13:21:00.521Z,25.81
2022-07-27T13:22:04.619Z,25.88
2022-07-27T13:23:07.380Z,25.92
2022-07-27T13:24:10.267Z,25.89
2022-07-27T13:25:16.176Z,26.02
2022-07-27T13:26:19.590Z,25.92
2022-07-27T13:27:21.955Z,25.86
2022-07-27T13:28:24.225Z,25.93
2022-07-27T13:29:31.613Z,26.06
2022-07-27T13:30:34.625Z,26.17
2022-07-27T13:31:37.268Z,26.30
2022-07-27T13:32:40.836Z,26.26
2022-07-27T13:33:43.093Z,26.12
2022-07-27T13:34:45.757Z,25.96
2022-07-27T13:35:58.971Z,25.82
2022-07-27T13:36:52.833Z,25.82
2022-07-27T13:37:55.548Z,25.88
2022-07-27T13:38:57.744Z,25.95
2022-07-27T13:40:00.024Z,25.95
2022-07-27T13:41:03.096Z,26.02
2022-07-27T13:42:05.477Z,26.03
2022-07-27T13:43:12.306Z,26.06
2022-07-27T13:44:35.659Z,25.93
2022-07-27T13:45:17.330Z,25.96
2022-07-27T13:46:21.031Z,26.03
2022-07-27T13:47:23.981Z,26.06
2022-07-27T13:48:26.311Z,25.93
2022-07-27T13:49:28.685Z,25.98
2022-07-27T13:50:32.055Z,26.09
2022-07-27T13:51:35.014Z,26.02